Terminal Aerodrome Forecast
Issued by NWS

Home | Current Version | Previous Version | Text Only | Print | Product List | Glossary On
Versions: 1 2 3 4 5 6 7 8 9 10 11 12 13 14 15 16 17 18 19 20
000
FTUS43 KLSX 251137
TAFCPS
TAF
KCPS 251137Z 2512/2612 23005KT P6SM SCT050 SCT250
      TEMPO 2515/2517 5SM -SHRA OVC035
     FM252100 01006KT P6SM VCTS SCT040CB BKN150
     FM260200 13005KT P6SM BKN150
     FM261000 13005KT P6SM VCSH BKN035=

USA.gov is the U.S. government's official web portal to all federal, state and local government web resources and services.